createdAt,value
2019-05-02T00:00:57.837Z,99.90
2019-05-02T00:03:27.029Z,99.90
2019-05-02T00:05:55.567Z,99.90
2019-05-02T00:08:24.352Z,99.90
2019-05-02T00:10:52.946Z,99.90
2019-05-02T00:13:21.560Z,99.90
2019-05-02T00:15:51.753Z,99.90
2019-05-02T00:18:22.112Z,99.90
2019-05-02T00:20:51.032Z,99.90
2019-05-02T00:23:22.950Z,99.90
2019-05-02T00:25:52.689Z,99.90
2019-05-02T00:28:19.958Z,99.90
2019-05-02T00:30:48.429Z,99.90
2019-05-02T00:33:16.952Z,99.90
2019-05-02T00:35:46.188Z,99.90
2019-05-02T00:38:15.657Z,99.90
2019-05-02T00:40:46.434Z,99.90
2019-05-02T00:43:14.304Z,99.90
2019-05-02T00:45:42.757Z,99.90
2019-05-02T00:48:19.323Z,99.90
2019-05-02T00:50:50.666Z,99.90
2019-05-02T00:53:16.140Z,99.90
2019-05-02T00:55:44.657Z,99.90
2019-05-02T00:58:13.286Z,99.90
2019-05-02T01:00:48.596Z,99.90
2019-05-02T01:03:17.918Z,99.90
2019-05-02T01:05:46.552Z,99.90
2019-05-02T01:08:15.080Z,99.90
2019-05-02T01:10:43.596Z,99.90
2019-05-02T01:13:14.747Z,99.90
2019-05-02T01:15:44.222Z,99.90
2019-05-02T01:18:12.470Z,99.90
2019-05-02T01:20:40.937Z,99.90
2019-05-02T01:23:09.448Z,99.90
2019-05-02T01:25:37.900Z,99.90
2019-05-02T01:28:12.771Z,99.90
2019-05-02T01:31:00.881Z,99.90
2019-05-02T01:33:41.387Z,99.90
2019-05-02T01:36:11.525Z,99.90
2019-05-02T01:38:44.356Z,99.90
2019-05-02T01:41:12.813Z,99.90
2019-05-02T01:43:41.262Z,99.90
2019-05-02T01:46:09.764Z,99.90
2019-05-02T01:48:40.192Z,99.90
2019-05-02T01:51:09.979Z,99.90
2019-05-02T01:53:38.741Z,99.90
2019-05-02T01:56:07.222Z,99.90
2019-05-02T01:58:35.712Z,99.90
2019-05-02T02:01:05.699Z,99.90
2019-05-02T02:03:34.350Z,99.90
2019-05-02T02:06:07.875Z,99.90
2019-05-02T02:08:33.994Z,99.90
2019-05-02T02:11:02.590Z,99.90
2019-05-02T02:13:35.930Z,99.90
2019-05-02T02:16:04.389Z,99.90
2019-05-02T02:18:33.128Z,99.90
2019-05-02T02:21:15.238Z,99.90
2019-05-02T02:23:50.971Z,99.90
2019-05-02T02:26:21.325Z,99.90
2019-05-02T02:28:49.778Z,99.90
2019-05-02T02:31:19.939Z,99.90
2019-05-02T02:33:49.885Z,99.90
2019-05-02T02:36:29.909Z,99.90
2019-05-02T02:38:49.021Z,99.90
2019-05-02T02:41:17.498Z,99.90
2019-05-02T02:43:47.595Z,99.90
2019-05-02T02:46:23.405Z,99.90
2019-05-02T02:48:51.849Z,99.90
2019-05-02T02:51:23.765Z,99.90
2019-05-02T02:53:56.698Z,99.90
2019-05-02T02:56:20.831Z,99.90
2019-05-02T02:58:49.409Z,99.90
2019-05-02T03:01:27.333Z,99.90
2019-05-02T03:03:49.057Z,99.90
2019-05-02T03:06:17.503Z,99.90
2019-05-02T03:08:49.187Z,99.90
2019-05-02T03:11:23.475Z,99.70
2019-05-02T03:14:07.260Z,99.90
2019-05-02T03:16:33.898Z,99.50
2019-05-02T03:19:02.343Z,99.90
2019-05-02T03:21:30.814Z,99.80
2019-05-02T03:24:03.420Z,99.50
2019-05-02T03:26:29.641Z,99.70
2019-05-02T03:29:00.661Z,99.90
2019-05-02T03:31:30.865Z,99.80
2019-05-02T03:34:00.518Z,99.90
2019-05-02T03:36:35.549Z,99.90
2019-05-02T03:38:59.857Z,99.90
2019-05-02T03:41:28.372Z,99.90
2019-05-02T03:44:10.413Z,99.90
2019-05-02T03:46:27.309Z,99.90
2019-05-02T03:49:06.231Z,99.90
2019-05-02T03:51:26.728Z,99.90
2019-05-02T03:54:06.104Z,99.90
2019-05-02T03:56:25.878Z,99.80
2019-05-02T03:58:56.366Z,99.90
2019-05-02T04:01:24.515Z,99.90
2019-05-02T04:03:53.797Z,99.90
2019-05-02T04:06:23.795Z,99.90
2019-05-02T04:08:58.717Z,99.70
2019-05-02T04:11:24.538Z,99.50
2019-05-02T04:13:54.025Z,99.60
2019-05-02T04:16:23.578Z,99.50
2019-05-02T04:18:56.102Z,99.90
2019-05-02T04:21:25.905Z,99.50
2019-05-02T04:23:53.149Z,98.90
2019-05-02T04:26:21.757Z,98.70
2019-05-02T04:28:51.545Z,99.00
2019-05-02T04:31:24.627Z,98.60
2019-05-02T04:33:50.712Z,98.50
2019-05-02T04:36:19.193Z,98.90
2019-05-02T04:38:51.971Z,98.60
2019-05-02T04:41:28.287Z,98.70
2019-05-02T04:43:57.647Z,97.90
2019-05-02T04:46:25.564Z,98.00
2019-05-02T04:48:52.505Z,98.10
2019-05-02T04:51:20.394Z,98.60
2019-05-02T04:53:49.836Z,98.30
2019-05-02T04:56:18.816Z,98.50
2019-05-02T04:58:49.480Z,98.60
2019-05-02T05:01:21.015Z,98.00
2019-05-02T05:03:56.998Z,98.50
2019-05-02T05:06:19.014Z,98.30
2019-05-02T05:08:48.454Z,98.00
2019-05-02T05:11:20.878Z,97.90
2019-05-02T05:13:47.891Z,98.10
2019-05-02T05:16:18.458Z,97.70
2019-05-02T05:18:49.402Z,98.00
2019-05-02T05:21:17.909Z,97.80
2019-05-02T05:23:59.519Z,97.60
2019-05-02T05:26:27.635Z,97.70
2019-05-02T05:28:58.300Z,98.10
2019-05-02T05:31:28.893Z,97.20
2019-05-02T05:33:57.895Z,97.30
2019-05-02T05:36:32.506Z,97.40
2019-05-02T05:38:58.224Z,97.20
2019-05-02T05:41:27.776Z,97.30
2019-05-02T05:43:57.366Z,97.30
2019-05-02T05:46:27.961Z,96.70
2019-05-02T05:48:58.262Z,97.30
2019-05-02T05:51:27.683Z,96.70
2019-05-02T05:53:58.978Z,96.80
2019-05-02T05:56:27.950Z,95.70
2019-05-02T05:58:58.842Z,95.60
2019-05-02T06:01:34.419Z,95.90
2019-05-02T06:03:58.100Z,96.40
2019-05-02T06:06:27.446Z,96.00
2019-05-02T06:08:56.041Z,95.30
2019-05-02T06:11:24.977Z,95.40
2019-05-02T06:13:53.493Z,94.70
2019-05-02T06:16:21.939Z,94.60
2019-05-02T06:18:50.422Z,93.60
2019-05-02T06:21:18.965Z,93.70
2019-05-02T06:23:47.470Z,93.00
2019-05-02T06:26:16.069Z,92.30
2019-05-02T06:28:44.576Z,92.10
2019-05-02T06:31:13.162Z,93.30
2019-05-02T06:33:41.648Z,93.10
2019-05-02T06:36:10.100Z,92.70
2019-05-02T06:38:38.615Z,92.50
2019-05-02T06:41:07.098Z,93.60
2019-05-02T06:43:35.550Z,92.50
2019-05-02T06:46:15.476Z,91.80
2019-05-02T06:48:34.820Z,92.60
2019-05-02T06:51:03.414Z,92.90
2019-05-02T06:53:34.814Z,91.60
2019-05-02T06:56:02.058Z,91.20
2019-05-02T06:58:30.501Z,90.70
2019-05-02T07:00:59.155Z,91.60
2019-05-02T07:03:27.848Z,92.50
2019-05-02T07:05:58.830Z,90.40
2019-05-02T07:08:26.760Z,89.70
2019-05-02T07:10:55.893Z,88.80
2019-05-02T07:13:25.797Z,89.10
2019-05-02T07:15:58.903Z,86.60
2019-05-02T07:18:34.849Z,89.40
2019-05-02T07:21:04.651Z,87.00
2019-05-02T07:23:33.171Z,89.80
2019-05-02T07:26:01.713Z,87.30
2019-05-02T07:28:30.160Z,86.80
2019-05-02T07:30:59.209Z,87.20
2019-05-02T07:33:32.292Z,87.60
2019-05-02T07:36:01.481Z,88.80
2019-05-02T07:38:39.054Z,87.30
2019-05-02T07:41:07.697Z,87.80
2019-05-02T07:43:36.162Z,83.80
2019-05-02T07:46:04.946Z,85.80
2019-05-02T07:48:33.386Z,85.00
2019-05-02T07:51:01.900Z,84.70
2019-05-02T07:53:30.469Z,83.10
2019-05-02T07:55:58.919Z,83.10
2019-05-02T07:58:27.445Z,82.80
2019-05-02T08:00:55.993Z,82.80
2019-05-02T08:03:24.517Z,83.70
2019-05-02T08:05:54.466Z,83.40
2019-05-02T08:08:25.087Z,80.70
2019-05-02T08:11:01.385Z,80.80
2019-05-02T08:13:23.880Z,81.50
2019-05-02T08:15:53.009Z,79.00
2019-05-02T08:18:25.227Z,82.50
2019-05-02T08:20:56.037Z,81.00
2019-05-02T08:23:25.784Z,81.20
2019-05-02T08:25:52.078Z,81.50
2019-05-02T08:28:28.705Z,80.40
2019-05-02T08:30:57.824Z,81.80
2019-05-02T08:33:29.096Z,79.80
2019-05-02T08:35:56.541Z,79.80
2019-05-02T08:38:24.984Z,80.70
2019-05-02T08:40:53.454Z,77.00
2019-05-02T08:43:21.930Z,80.50
2019-05-02T08:45:50.394Z,79.20
2019-05-02T08:48:18.902Z,80.20
2019-05-02T08:50:47.397Z,79.70
2019-05-02T08:53:19.688Z,78.20
2019-05-02T08:55:46.746Z,80.70
2019-05-02T08:58:15.969Z,79.50
2019-05-02T09:00:47.008Z,78.00
2019-05-02T09:03:14.829Z,78.80
2019-05-02T09:05:46.114Z,80.50
2019-05-02T09:08:14.327Z,80.00
2019-05-02T09:10:44.376Z,76.30
2019-05-02T09:13:17.921Z,74.70
2019-05-02T09:15:49.736Z,75.50
2019-05-02T09:18:13.453Z,79.70
2019-05-02T09:20:42.417Z,73.30
2019-05-02T09:23:12.391Z,71.00
2019-05-02T09:25:42.942Z,73.00
2019-05-02T09:28:12.486Z,73.60
2019-05-02T09:30:41.895Z,68.00
2019-05-02T09:33:11.717Z,72.40
2019-05-02T09:35:42.217Z,72.40
2019-05-02T09:38:12.586Z,69.70
2019-05-02T09:40:42.615Z,69.10
2019-05-02T09:43:12.191Z,65.40
2019-05-02T09:45:43.646Z,65.90
2019-05-02T09:48:12.540Z,68.30
2019-05-02T09:50:42.146Z,65.90
2019-05-02T09:53:13.156Z,68.90
2019-05-02T09:55:42.391Z,68.10
2019-05-02T09:58:19.446Z,67.20
2019-05-02T10:01:01.852Z,66.60
2019-05-02T10:03:31.703Z,66.50
2019-05-02T10:06:00.126Z,66.80
2019-05-02T10:08:28.717Z,67.70
2019-05-02T10:10:57.413Z,65.90
2019-05-02T10:13:26.111Z,65.60
2019-05-02T10:15:54.694Z,66.20
2019-05-02T10:18:28.335Z,66.30
2019-05-02T10:20:54.323Z,64.20
2019-05-02T10:23:23.446Z,63.50
2019-05-02T10:25:52.299Z,62.20
2019-05-02T10:28:22.724Z,62.70
2019-05-02T10:30:52.556Z,63.80
2019-05-02T10:33:22.552Z,65.20
2019-05-02T10:35:52.472Z,63.00
2019-05-02T10:38:22.715Z,69.80
2019-05-02T10:40:54.782Z,63.00
2019-05-02T10:43:22.222Z,64.90
2019-05-02T10:45:56.588Z,60.50
2019-05-02T10:48:28.490Z,60.70
2019-05-02T10:51:13.220Z,56.00
2019-05-02T10:53:42.439Z,59.30
2019-05-02T10:56:11.797Z,56.20
2019-05-02T10:58:39.668Z,58.50
2019-05-02T11:01:08.965Z,60.90
2019-05-02T11:03:47.426Z,63.00
2019-05-02T11:06:15.372Z,58.80
2019-05-02T11:08:45.958Z,58.50
2019-05-02T11:11:14.297Z,57.80
2019-05-02T11:13:46.845Z,55.80
2019-05-02T11:16:17.078Z,58.90
2019-05-02T11:18:53.058Z,59.40
2019-05-02T11:21:22.908Z,55.50
2019-05-02T11:23:52.818Z,55.30
2019-05-02T11:26:25.099Z,54.80
2019-05-02T11:28:52.260Z,57.90
2019-05-02T11:31:21.897Z,56.30
2019-05-02T11:33:52.737Z,54.70
2019-05-02T11:36:22.453Z,57.10
2019-05-02T11:39:00.634Z,55.00
2019-05-02T11:41:19.782Z,56.20
2019-05-02T11:43:48.235Z,53.90
2019-05-02T11:46:16.754Z,58.40
2019-05-02T11:48:55.647Z,55.70
2019-05-02T11:51:16.518Z,56.90
2019-05-02T11:53:45.106Z,56.60
2019-05-02T11:56:13.590Z,53.70
2019-05-02T11:58:48.015Z,56.10
2019-05-02T12:01:12.615Z,56.20
2019-05-02T12:03:42.894Z,58.40
2019-05-02T12:06:16.164Z,54.50
2019-05-02T12:08:45.010Z,54.70
2019-05-02T12:11:16.166Z,51.40
2019-05-02T12:13:42.807Z,52.90
2019-05-02T12:16:12.582Z,50.10
2019-05-02T12:18:41.892Z,50.70
2019-05-02T12:21:11.924Z,49.10
2019-05-02T12:23:42.111Z,49.10
2019-05-02T12:26:12.353Z,47.50
2019-05-02T12:28:42.768Z,48.00
2019-05-02T12:31:16.711Z,44.60
2019-05-02T12:33:45.593Z,43.50
2019-05-02T12:36:14.108Z,42.80
2019-05-02T12:38:42.554Z,47.50
2019-05-02T12:41:20.284Z,43.80
2019-05-02T12:43:41.686Z,46.50
2019-05-02T12:46:11.716Z,50.40
2019-05-02T12:48:42.188Z,46.00
2019-05-02T12:51:12.637Z,44.90
2019-05-02T12:53:41.816Z,41.10
2019-05-02T12:56:11.950Z,39.50
2019-05-02T12:58:42.107Z,41.60
2019-05-02T13:01:12.275Z,40.90
2019-05-02T13:03:43.601Z,41.00
2019-05-02T13:06:12.471Z,41.30
2019-05-02T13:08:52.065Z,39.10
2019-05-02T13:11:42.236Z,38.90
2019-05-02T13:14:18.356Z,38.50
2019-05-02T13:16:38.646Z,38.50
2019-05-02T13:19:07.230Z,34.60
2019-05-02T13:21:50.260Z,35.40
2019-05-02T13:24:18.722Z,31.70
2019-05-02T13:26:52.024Z,31.70
2019-05-02T13:29:18.042Z,34.40
2019-05-02T13:31:48.349Z,35.50
2019-05-02T13:34:18.438Z,35.50
2019-05-02T13:36:54.360Z,34.40
2019-05-02T13:39:32.545Z,35.00
2019-05-02T13:42:01.726Z,33.10
2019-05-02T13:44:32.673Z,33.70
2019-05-02T13:47:02.706Z,34.40
2019-05-02T13:49:32.407Z,34.20
2019-05-02T13:52:02.450Z,32.50
2019-05-02T13:54:33.020Z,31.80
2019-05-02T13:57:03.145Z,31.00
2019-05-02T13:59:33.598Z,32.50
2019-05-02T14:02:02.869Z,33.30
2019-05-02T14:04:32.665Z,35.90
2019-05-02T14:07:02.950Z,32.30
2019-05-02T14:09:36.636Z,31.80
2019-05-02T14:12:07.029Z,31.10
2019-05-02T14:14:35.469Z,32.70
2019-05-02T14:17:03.954Z,32.20
2019-05-02T14:19:32.400Z,32.40
2019-05-02T14:22:02.830Z,34.50
2019-05-02T14:24:32.358Z,32.40
2019-05-02T14:27:02.619Z,32.60
2019-05-02T14:29:32.961Z,33.40
2019-05-02T14:32:02.721Z,33.00
2019-05-02T14:34:45.093Z,34.90
2019-05-02T14:37:13.640Z,34.60
2019-05-02T14:39:43.196Z,33.80
2019-05-02T14:42:15.416Z,35.60
2019-05-02T14:45:04.013Z,34.90
2019-05-02T14:47:18.177Z,32.10
2019-05-02T14:49:42.915Z,33.40
2019-05-02T14:52:12.681Z,33.30
2019-05-02T14:54:43.815Z,33.10
2019-05-02T14:57:17.076Z,32.20
2019-05-02T14:59:43.397Z,34.20
2019-05-02T15:02:13.656Z,33.40
2019-05-02T15:04:44.545Z,34.30
2019-05-02T15:07:12.955Z,34.90
2019-05-02T15:09:41.835Z,35.40
2019-05-02T15:12:15.851Z,33.70
2019-05-02T15:14:40.822Z,34.70
2019-05-02T15:17:09.328Z,33.40
2019-05-02T15:19:37.780Z,33.60
2019-05-02T15:22:06.348Z,33.40
2019-05-02T15:24:37.501Z,33.20
2019-05-02T15:27:12.196Z,34.20
2019-05-02T15:29:35.342Z,33.20
2019-05-02T15:32:17.989Z,33.40
2019-05-02T15:35:04.677Z,33.80
2019-05-02T15:37:35.799Z,33.20
2019-05-02T15:42:35.352Z,34.10
2019-05-02T15:45:05.763Z,31.50
2019-05-02T15:47:37.017Z,31.60
2019-05-02T15:50:05.893Z,33.40
2019-05-02T15:52:42.116Z,33.50
2019-05-02T15:55:11.608Z,34.20
2019-05-02T15:57:43.665Z,34.40
2019-05-02T16:00:17.158Z,33.20
2019-05-02T16:02:43.241Z,32.70
2019-05-02T16:05:12.041Z,34.70
2019-05-02T16:07:44.941Z,35.30
2019-05-02T16:10:13.128Z,36.10
2019-05-02T16:12:43.350Z,37.00
2019-05-02T16:15:18.158Z,37.10
2019-05-02T16:17:42.360Z,39.10
2019-05-02T16:20:21.222Z,41.80
2019-05-02T16:22:50.014Z,42.90
2019-05-02T16:25:20.132Z,42.30
2019-05-02T16:27:49.091Z,42.30
2019-05-02T16:30:22.671Z,44.00
2019-05-02T16:32:52.764Z,43.50
2019-05-02T16:35:23.458Z,42.50
2019-05-02T16:37:55.844Z,44.80
2019-05-02T16:40:30.075Z,45.60
2019-05-02T16:42:52.593Z,45.50
2019-05-02T16:45:22.231Z,47.30
2019-05-02T16:47:58.721Z,49.00
2019-05-02T16:50:22.936Z,48.20
2019-05-02T16:52:53.155Z,48.40
2019-05-02T16:55:26.330Z,49.50
2019-05-02T16:57:56.734Z,48.60
2019-05-02T17:00:24.526Z,50.10
2019-05-02T17:02:53.207Z,51.80
2019-05-02T17:05:22.154Z,53.50
2019-05-02T17:08:18.282Z,54.30
2019-05-02T17:10:42.494Z,55.70
2019-05-02T17:13:12.593Z,56.70
2019-05-02T17:15:42.764Z,58.90
2019-05-02T17:18:17.222Z,59.80
2019-05-02T17:20:41.666Z,61.10
2019-05-02T17:23:10.164Z,62.80
2019-05-02T17:25:38.620Z,64.50
2019-05-02T17:28:10.488Z,66.90
2019-05-02T17:30:39.000Z,69.00
2019-05-02T17:33:12.923Z,69.90
2019-05-02T17:35:43.357Z,69.70
2019-05-02T17:38:08.822Z,70.70
2019-05-02T17:40:37.268Z,72.00
2019-05-02T17:43:07.046Z,75.10
2019-05-02T17:45:38.712Z,73.70
2019-05-02T17:48:08.429Z,74.10
2019-05-02T17:50:59.198Z,75.60
2019-05-02T17:53:27.563Z,75.60
2019-05-02T17:55:56.074Z,76.10
2019-05-02T17:58:24.692Z,77.40
2019-05-02T18:00:56.156Z,77.80
2019-05-02T18:03:31.063Z,77.30
2019-05-02T18:05:55.416Z,78.30
2019-05-02T18:08:24.009Z,78.80
2019-05-02T18:10:58.075Z,78.00
2019-05-02T18:13:22.882Z,80.20
2019-05-02T18:15:53.447Z,79.10
2019-05-02T18:18:22.328Z,79.10
2019-05-02T18:20:52.727Z,81.90
2019-05-02T18:23:25.868Z,81.90
2019-05-02T18:25:52.545Z,81.50
2019-05-02T18:28:25.936Z,82.90
2019-05-02T18:30:52.462Z,80.80
2019-05-02T18:33:20.318Z,82.80
2019-05-02T18:35:48.868Z,82.20
2019-05-02T18:38:20.891Z,82.10
2019-05-02T18:40:48.824Z,83.30
2019-05-02T18:43:17.394Z,83.90
2019-05-02T18:45:45.921Z,83.20
2019-05-02T18:48:14.368Z,85.10
2019-05-02T18:50:46.879Z,84.50
2019-05-02T18:53:13.969Z,85.50
2019-05-02T18:55:42.512Z,84.70
2019-05-02T18:58:12.749Z,84.60
2019-05-02T19:00:42.068Z,85.70
2019-05-02T19:03:13.225Z,86.40
2019-05-02T19:05:42.200Z,85.00
2019-05-02T19:08:12.022Z,85.30
2019-05-02T19:10:44.744Z,85.60
2019-05-02T19:13:12.768Z,87.30
2019-05-02T19:15:45.327Z,88.00
2019-05-02T19:18:18.186Z,88.30
2019-05-02T19:20:57.567Z,87.90
2019-05-02T19:23:24.738Z,86.50
2019-05-02T19:25:53.251Z,87.70
2019-05-02T19:28:23.740Z,87.40
2019-05-02T19:30:52.331Z,88.20
2019-05-02T19:33:21.612Z,87.20
2019-05-02T19:35:52.565Z,87.60
2019-05-02T19:38:24.733Z,88.50
2019-05-02T19:40:52.024Z,90.00
2019-05-02T19:43:22.916Z,89.20
2019-05-02T19:45:53.927Z,87.70
2019-05-02T19:48:22.712Z,85.40
2019-05-02T19:50:51.798Z,86.00
2019-05-02T19:53:22.660Z,88.40
2019-05-02T19:55:51.991Z,87.50
2019-05-02T19:58:20.834Z,84.90
2019-05-02T20:00:49.933Z,88.80
2019-05-02T20:03:21.766Z,89.40
2019-05-02T20:05:51.782Z,90.30
2019-05-02T20:08:24.074Z,89.90
2019-05-02T20:10:56.860Z,90.70
2019-05-02T20:13:27.938Z,89.30
2019-05-02T20:15:57.063Z,88.60
2019-05-02T20:18:22.995Z,90.00
2019-05-02T20:21:02.663Z,89.40
2019-05-02T20:23:35.369Z,87.80
2019-05-02T20:26:01.494Z,87.50
2019-05-02T20:28:32.319Z,86.90
2019-05-02T20:31:01.802Z,84.30
2019-05-02T20:33:29.568Z,84.70
2019-05-02T20:35:58.137Z,86.30
2019-05-02T20:38:26.662Z,85.90
2019-05-02T20:40:55.173Z,85.70
2019-05-02T20:43:23.649Z,85.30
2019-05-02T20:45:52.819Z,83.80
2019-05-02T20:48:22.761Z,83.10
2019-05-02T20:50:52.066Z,83.40
2019-05-02T20:53:30.227Z,84.10
2019-05-02T20:55:52.403Z,82.80
2019-05-02T20:58:22.022Z,83.30
2019-05-02T21:01:03.179Z,83.60
2019-05-02T21:03:20.243Z,82.00
2019-05-02T21:05:53.384Z,84.50
2019-05-02T21:08:23.562Z,82.70
2019-05-02T21:11:01.661Z,82.90
2019-05-02T21:13:29.805Z,81.20
2019-05-02T21:15:58.394Z,81.80
2019-05-02T21:18:26.890Z,80.80
2019-05-02T21:20:55.410Z,81.40
2019-05-02T21:23:23.925Z,81.50
2019-05-02T21:25:52.604Z,79.40
2019-05-02T21:28:22.708Z,80.70
2019-05-02T21:30:52.356Z,80.20
2019-05-02T21:33:22.426Z,80.00
2019-05-02T21:35:51.881Z,81.20
2019-05-02T21:38:22.520Z,80.80
2019-05-02T21:40:52.551Z,81.00
2019-05-02T21:43:22.148Z,80.80
2019-05-02T21:45:51.684Z,81.00
2019-05-02T21:48:21.830Z,81.90
2019-05-02T21:50:51.865Z,79.40
2019-05-02T21:53:27.789Z,79.80
2019-05-02T21:56:03.437Z,79.00
2019-05-02T21:58:32.340Z,80.30
2019-05-02T22:01:05.094Z,81.30
2019-05-02T22:03:33.687Z,80.10
2019-05-02T22:06:02.225Z,82.00
2019-05-02T22:08:32.337Z,81.70
2019-05-02T22:11:01.018Z,82.20
2019-05-02T22:13:31.475Z,82.60
2019-05-02T22:15:59.815Z,81.00
2019-05-02T22:18:28.269Z,79.70
2019-05-02T22:20:56.757Z,80.60
2019-05-02T22:23:25.208Z,83.00
2019-05-02T22:25:53.659Z,81.00
2019-05-02T22:28:22.285Z,83.60
2019-05-02T22:30:54.346Z,87.40
2019-05-02T22:33:22.193Z,86.40
2019-05-02T22:35:52.430Z,87.50
2019-05-02T22:38:25.512Z,86.10
2019-05-02T22:40:55.620Z,87.20
2019-05-02T22:43:24.070Z,87.70
2019-05-02T22:45:52.777Z,86.10
2019-05-02T22:48:22.703Z,84.40
2019-05-02T22:50:52.246Z,84.20
2019-05-02T22:53:21.580Z,85.80
2019-05-02T22:55:51.777Z,86.90
2019-05-02T22:58:21.893Z,86.40
2019-05-02T23:00:52.283Z,85.70
2019-05-02T23:03:21.519Z,88.20
2019-05-02T23:05:52.622Z,89.50
2019-05-02T23:08:21.981Z,89.90
2019-05-02T23:10:51.939Z,88.60
2019-05-02T23:13:22.006Z,87.90
2019-05-02T23:15:52.185Z,89.00
2019-05-02T23:18:22.699Z,88.80
2019-05-02T23:20:52.582Z,88.20
2019-05-02T23:23:21.561Z,89.80
2019-05-02T23:25:56.118Z,89.10
2019-05-02T23:28:26.201Z,90.10
2019-05-02T23:30:54.645Z,89.70
2019-05-02T23:33:24.758Z,89.30
2019-05-02T23:35:53.212Z,90.00
2019-05-02T23:38:21.825Z,89.90
2019-05-02T23:40:50.412Z,90.20
2019-05-02T23:43:18.857Z,90.50
2019-05-02T23:45:47.337Z,89.80
2019-05-02T23:48:15.827Z,90.10
2019-05-02T23:50:44.277Z,89.30
2019-05-02T23:53:13.185Z,89.10
2019-05-02T23:55:42.600Z,90.00
2019-05-02T23:58:11.972Z,90.30
